createdAt,value
2018-04-13T00:02:11.556Z,24.77
2018-04-13T00:06:14.400Z,18.73
2018-04-13T00:10:17.177Z,22.20
2018-04-13T00:14:19.997Z,19.40
2018-04-13T00:18:22.872Z,21.37
2018-04-13T00:22:25.669Z,23.90
2018-04-13T00:26:28.409Z,26.50
2018-04-13T00:30:31.166Z,37.20
2018-04-13T00:34:34.769Z,31.70
2018-04-13T00:38:37.499Z,30.30
2018-04-13T00:42:40.325Z,40.37
2018-04-13T00:46:43.939Z,28.97
2018-04-13T00:50:47.510Z,30.43
2018-04-13T00:54:50.238Z,28.30
2018-04-13T00:58:53.044Z,35.70
2018-04-13T01:02:55.784Z,50.37
2018-04-13T01:06:58.623Z,44.40
2018-04-13T01:11:01.360Z,41.30
2018-04-13T01:15:04.186Z,25.10
2018-04-13T01:19:06.925Z,37.30
2018-04-13T01:23:09.745Z,28.67
2018-04-13T01:27:13.309Z,34.03
2018-04-13T01:31:16.174Z,35.93
2018-04-13T01:35:19.157Z,34.10
2018-04-13T01:39:22.682Z,34.37
2018-04-13T01:43:26.298Z,36.77
2018-04-13T01:47:29.191Z,55.03
2018-04-13T01:51:32.106Z,26.60
2018-04-13T01:55:34.992Z,34.90
2018-04-13T01:59:38.488Z,37.17
2018-04-13T02:03:41.421Z,26.83
2018-04-13T02:07:44.175Z,23.77
2018-04-13T02:11:47.066Z,55.37
2018-04-13T02:15:49.850Z,45.07
2018-04-13T02:19:52.848Z,54.60
2018-04-13T02:23:55.593Z,42.00
2018-04-13T02:27:59.316Z,33.60
2018-04-13T02:32:02.822Z,33.20
2018-04-13T02:36:06.441Z,35.37
2018-04-13T02:40:09.963Z,39.50
2018-04-13T02:44:12.857Z,40.93
2018-04-13T02:48:15.620Z,36.47
2018-04-13T02:52:18.525Z,43.40
2018-04-13T02:56:21.303Z,33.23
2018-04-13T03:00:24.123Z,43.20
2018-04-13T03:04:26.885Z,37.33
2018-04-13T03:08:29.685Z,47.17
2018-04-13T03:12:32.398Z,35.00
2018-04-13T03:16:35.249Z,28.90
2018-04-13T03:20:38.883Z,26.23
2018-04-13T03:24:41.661Z,51.50
2018-04-13T03:28:45.174Z,21.93
2018-04-13T03:32:48.676Z,32.83
2018-04-13T03:36:51.452Z,38.97
2018-04-13T03:40:54.198Z,38.17
2018-04-13T03:44:57.021Z,36.93
2018-04-13T03:49:00.590Z,43.07
2018-04-13T03:53:04.150Z,37.50
2018-04-13T03:57:06.899Z,40.23
2018-04-13T04:01:10.626Z,33.37
2018-04-13T04:05:13.420Z,32.37
2018-04-13T04:09:16.384Z,33.37
2018-04-13T04:13:19.130Z,35.80
2018-04-13T04:17:21.868Z,55.97
2018-04-13T04:21:36.499Z,48.83
2018-04-13T04:25:44.926Z,65.83
2018-04-13T04:29:51.942Z,71.47
2018-04-13T04:33:55.704Z,65.70
2018-04-13T04:37:58.756Z,69.40
2018-04-13T04:42:01.819Z,59.50
2018-04-13T04:46:05.500Z,69.40
2018-04-13T04:50:08.262Z,65.27
2018-04-13T04:54:11.123Z,59.27
2018-04-13T04:58:13.979Z,58.87
2018-04-13T05:02:16.805Z,78.57
2018-04-13T05:06:19.711Z,57.43
2018-04-13T05:10:22.461Z,57.73
2018-04-13T05:14:25.323Z,61.67
2018-04-13T05:18:28.155Z,53.97
2018-04-13T05:22:30.978Z,42.47
2018-04-13T05:26:33.743Z,55.40
2018-04-13T05:30:36.503Z,64.57
2018-04-13T05:34:39.543Z,66.40
2018-04-13T05:38:42.373Z,46.73
2018-04-13T05:42:45.249Z,45.30
2018-04-13T05:46:48.250Z,43.17
2018-04-13T05:50:51.037Z,54.07
2018-04-13T05:54:54.653Z,79.83
2018-04-13T05:58:58.167Z,72.17
2018-04-13T06:03:01.691Z,91.90
2018-04-13T06:07:04.553Z,98.80
2018-04-13T06:11:08.535Z,63.80
2018-04-13T06:15:12.227Z,47.17
2018-04-13T06:19:14.997Z,37.10
2018-04-13T06:23:17.839Z,20.33
2018-04-13T06:27:20.583Z,14.03
2018-04-13T06:31:23.627Z,13.37
2018-04-13T06:35:28.824Z,15.07
2018-04-13T06:39:33.357Z,14.10
2018-04-13T06:43:36.200Z,10.90
2018-04-13T06:47:39.694Z,10.77
2018-04-13T06:51:42.461Z,12.13
2018-04-13T06:55:45.194Z,10.37
2018-04-13T06:59:48.169Z,7.57
2018-04-13T07:03:50.929Z,8.10
2018-04-13T07:07:53.731Z,9.57
2018-04-13T07:11:56.853Z,5.33
2018-04-13T07:16:00.421Z,4.83
2018-04-13T07:20:03.229Z,6.57
2018-04-13T07:24:06.318Z,6.03
2018-04-13T07:28:09.789Z,6.07
2018-04-13T07:32:13.593Z,4.33
2018-04-13T07:36:17.761Z,7.10
2018-04-13T07:40:20.192Z,7.60
2018-04-13T07:44:23.068Z,4.10
2018-04-13T07:48:25.814Z,4.23
2018-04-13T07:52:28.625Z,6.90
2018-04-13T07:56:31.351Z,5.13
2018-04-13T08:00:34.739Z,5.77
2018-04-13T08:04:37.008Z,4.90
2018-04-13T08:08:39.786Z,4.67
2018-04-13T08:12:42.537Z,4.67
2018-04-13T08:16:46.109Z,3.70
2018-04-13T08:20:48.825Z,3.30
2018-04-13T08:24:51.645Z,3.40
2018-04-13T08:28:54.566Z,2.40
2018-04-13T08:32:58.055Z,4.10
2018-04-13T08:37:00.852Z,2.70
2018-04-13T08:41:03.600Z,3.90
2018-04-13T08:45:06.425Z,2.53
2018-04-13T08:49:09.395Z,4.27
2018-04-13T08:53:11.994Z,3.63
2018-04-13T08:57:15.441Z,3.62
2018-04-13T09:01:19.128Z,7.07
2018-04-13T09:05:21.972Z,7.03
2018-04-13T09:13:40.170Z,2.93
2018-04-13T09:17:44.315Z,10.87
2018-04-13T09:21:47.107Z,5.70
2018-04-13T09:25:49.979Z,4.30
2018-04-13T09:29:52.673Z,2.10
2018-04-13T09:33:55.463Z,1.90
2018-04-13T09:37:58.371Z,6.63
2018-04-13T09:42:01.118Z,7.23
2018-04-13T09:46:03.978Z,3.33
2018-04-13T09:50:07.473Z,3.90
2018-04-13T09:54:10.329Z,2.87
2018-04-13T09:58:13.056Z,4.40
2018-04-13T10:02:21.126Z,3.60
2018-04-13T10:06:24.813Z,3.20
2018-04-13T10:10:27.584Z,2.50
2018-04-13T10:14:30.459Z,7.27
2018-04-13T10:18:33.198Z,4.60
2018-04-13T10:22:35.961Z,2.67
2018-04-13T10:26:39.518Z,3.60
2018-04-13T10:30:42.286Z,2.13
2018-04-13T10:34:45.265Z,4.00
2018-04-13T10:38:48.144Z,4.53
2018-04-13T10:42:51.021Z,2.80
2018-04-13T10:46:53.741Z,4.30
2018-04-13T10:50:56.513Z,2.20
2018-04-13T10:54:59.273Z,4.27
2018-04-13T10:59:02.082Z,5.07
2018-04-13T11:03:04.947Z,2.83
2018-04-13T11:07:07.704Z,2.80
2018-04-13T11:11:10.544Z,1.60
2018-04-13T11:15:13.417Z,3.30
2018-04-13T11:19:16.922Z,6.50
2018-04-13T11:23:19.677Z,1.40
2018-04-13T11:27:23.015Z,3.60
2018-04-13T11:31:25.747Z,1.10
2018-04-13T11:35:28.523Z,2.83
2018-04-13T11:39:32.372Z,1.70
2018-04-13T11:43:35.250Z,1.20
2018-04-13T11:47:39.402Z,4.73
2018-04-13T11:51:42.120Z,2.53
2018-04-13T11:55:45.049Z,3.20
2018-04-13T11:59:47.815Z,2.50
2018-04-13T12:03:50.977Z,2.10
2018-04-13T12:07:54.510Z,2.30
2018-04-13T12:12:01.453Z,2.53
2018-04-13T12:16:07.806Z,1.90
2018-04-13T12:20:11.482Z,1.30
2018-04-13T12:24:18.394Z,3.20
2018-04-13T12:28:21.524Z,1.83
2018-04-13T12:32:24.325Z,1.37
2018-04-13T12:36:27.948Z,2.50
2018-04-13T12:40:30.720Z,1.40
2018-04-13T12:44:33.543Z,1.17
2018-04-13T12:48:36.249Z,2.27
2018-04-13T12:52:39.039Z,1.70
2018-04-13T12:56:42.168Z,4.03
2018-04-13T13:00:45.936Z,2.40
2018-04-13T13:04:48.655Z,2.43
2018-04-13T13:08:51.782Z,1.50
2018-04-13T13:12:54.548Z,1.40
2018-04-13T13:16:57.876Z,1.40
2018-04-13T13:21:01.788Z,1.20
2018-04-13T13:25:04.683Z,3.43
2018-04-13T13:29:11.386Z,2.23
2018-04-13T13:33:14.147Z,2.90
2018-04-13T13:37:16.990Z,5.53
2018-04-13T13:41:19.738Z,2.57
2018-04-13T13:45:22.489Z,2.30
2018-04-13T13:49:25.555Z,2.28
2018-04-13T13:53:28.334Z,0.90
2018-04-13T13:57:31.199Z,2.00
2018-04-13T14:01:34.031Z,2.50
2018-04-13T14:05:37.641Z,1.20
2018-04-13T14:09:41.133Z,1.27
2018-04-13T14:13:43.871Z,1.03
2018-04-13T14:17:46.653Z,1.63
2018-04-13T14:21:49.432Z,1.63
2018-04-13T14:25:52.628Z,2.20
2018-04-13T14:29:55.712Z,1.17
2018-04-13T14:33:58.537Z,1.20
2018-04-13T14:38:01.338Z,1.10
2018-04-13T14:42:04.852Z,1.20
2018-04-13T14:46:07.634Z,1.97
2018-04-13T14:50:11.265Z,0.90
2018-04-13T14:54:14.172Z,2.70
2018-04-13T14:58:17.348Z,1.20
2018-04-13T15:02:20.186Z,0.90
2018-04-13T15:06:23.723Z,1.77
2018-04-13T15:10:26.745Z,2.07
2018-04-13T15:14:29.804Z,1.13
2018-04-13T15:18:32.733Z,1.20
2018-04-13T15:22:36.475Z,1.70
2018-04-13T15:26:39.457Z,1.10
2018-04-13T15:30:42.376Z,3.40
2018-04-13T15:34:46.049Z,0.60
2018-04-13T15:38:49.660Z,0.67
2018-04-13T15:42:53.284Z,0.73
2018-04-13T15:46:56.343Z,1.00
2018-04-13T15:50:59.200Z,1.30
2018-04-13T15:55:02.694Z,5.20
2018-04-13T15:59:06.952Z,4.03
2018-04-13T16:03:09.994Z,2.53
2018-04-13T16:07:12.720Z,3.03
2018-04-13T16:11:15.940Z,1.87
2018-04-13T16:15:18.743Z,1.90
2018-04-13T16:19:22.357Z,4.80
2018-04-13T16:23:26.055Z,1.27
2018-04-13T16:27:28.837Z,5.57
2018-04-13T16:31:31.598Z,2.13
2018-04-13T16:35:34.354Z,1.07
2018-04-13T16:39:37.214Z,0.60
2018-04-13T16:43:40.040Z,1.77
2018-04-13T16:47:43.564Z,1.80
2018-04-13T16:51:46.380Z,2.80
2018-04-13T16:55:49.132Z,1.63
2018-04-13T16:59:51.868Z,1.27
2018-04-13T17:03:55.378Z,1.00
2018-04-13T17:08:00.146Z,1.63
2018-04-13T17:12:02.987Z,1.47
2018-04-13T17:16:06.621Z,1.53
2018-04-13T17:20:09.493Z,1.30
2018-04-13T17:24:12.537Z,1.37
2018-04-13T17:28:15.585Z,1.40
2018-04-13T17:32:18.601Z,1.70
2018-04-13T17:36:21.608Z,1.77
2018-04-13T17:40:24.563Z,1.87
2018-04-13T17:44:28.245Z,6.83
2018-04-13T17:48:31.257Z,4.50
2018-04-13T17:52:34.136Z,2.70
2018-04-13T17:56:36.858Z,4.20
2018-04-13T18:00:43.209Z,20.27
2018-04-13T18:04:46.966Z,50.83
2018-04-13T18:08:49.697Z,44.47
2018-04-13T18:12:52.538Z,15.43
2018-04-13T18:16:55.484Z,4.20
2018-04-13T18:20:59.005Z,3.10
2018-04-13T18:25:01.896Z,1.73
2018-04-13T18:29:05.398Z,2.57
2018-04-13T18:33:09.019Z,4.00
2018-04-13T18:37:12.662Z,7.23
2018-04-13T18:41:15.584Z,2.60
2018-04-13T18:45:20.538Z,2.87
2018-04-13T18:49:24.076Z,4.30
2018-04-13T18:53:26.821Z,2.10
2018-04-13T18:57:29.836Z,2.60
2018-04-13T19:01:32.623Z,3.13
2018-04-13T19:05:36.186Z,10.47
2018-04-13T19:09:38.965Z,6.07
2018-04-13T19:13:41.770Z,2.07
2018-04-13T19:17:44.653Z,3.33
2018-04-13T19:21:47.416Z,5.63
2018-04-13T19:25:51.005Z,2.63
2018-04-13T19:29:53.955Z,7.43
2018-04-13T19:33:56.681Z,3.27
2018-04-13T19:37:59.453Z,2.83
2018-04-13T19:42:02.495Z,1.67
2018-04-13T19:46:05.314Z,5.63
2018-04-13T19:50:08.880Z,6.90
2018-04-13T19:54:12.024Z,13.73
2018-04-13T19:58:15.133Z,6.40
2018-04-13T20:02:18.326Z,1.83
2018-04-13T20:06:21.826Z,2.43
2018-04-13T20:10:25.661Z,5.77
2018-04-13T20:14:31.856Z,7.93
2018-04-13T20:18:35.041Z,5.37
2018-04-13T20:22:38.562Z,4.93
2018-04-13T20:26:43.148Z,14.10
2018-04-13T20:30:45.888Z,3.77
2018-04-13T20:34:48.586Z,3.13
2018-04-13T20:38:51.619Z,3.20
2018-04-13T20:42:55.429Z,5.53
2018-04-13T20:46:59.271Z,5.93
2018-04-13T20:51:03.272Z,4.33
2018-04-13T20:55:06.236Z,3.93
2018-04-13T20:59:09.614Z,3.30
2018-04-13T21:03:12.386Z,4.93
2018-04-13T21:07:15.891Z,3.30
2018-04-13T21:11:20.159Z,5.00
2018-04-13T21:15:22.963Z,4.00
2018-04-13T21:19:25.948Z,5.03
2018-04-13T21:23:29.724Z,9.27
2018-04-13T21:27:32.679Z,6.43
2018-04-13T21:31:35.414Z,9.87
2018-04-13T21:35:38.254Z,3.00
2018-04-13T21:39:41.737Z,5.00
2018-04-13T21:43:45.282Z,5.83
2018-04-13T21:47:48.064Z,13.73
2018-04-13T21:51:50.898Z,4.73
2018-04-13T21:55:53.627Z,3.13
2018-04-13T21:59:56.433Z,4.40
2018-04-13T22:03:59.167Z,3.07
2018-04-13T22:08:02.733Z,4.50
2018-04-13T22:16:34.215Z,7.43
2018-04-13T22:20:37.749Z,2.50
2018-04-13T22:24:41.342Z,4.57
2018-04-13T22:28:44.140Z,10.73
2018-04-13T22:32:46.906Z,3.63
2018-04-13T22:36:49.699Z,3.23
2018-04-13T22:40:52.430Z,2.90
2018-04-13T22:44:55.153Z,2.63
2018-04-13T22:48:57.903Z,2.87
2018-04-13T22:53:00.660Z,9.93
2018-04-13T22:57:03.462Z,2.97
2018-04-13T23:01:06.180Z,3.13
2018-04-13T23:05:08.917Z,3.07
2018-04-13T23:09:11.951Z,3.57
2018-04-13T23:13:14.685Z,4.10
2018-04-13T23:17:17.516Z,3.30
2018-04-13T23:21:20.226Z,3.10
2018-04-13T23:25:23.175Z,4.43
2018-04-13T23:29:25.942Z,3.00
2018-04-13T23:33:29.692Z,2.70
2018-04-13T23:37:32.407Z,3.03
2018-04-13T23:41:36.306Z,3.97
2018-04-13T23:45:39.799Z,2.73
2018-04-13T23:49:43.389Z,8.50
2018-04-13T23:53:46.121Z,3.33
2018-04-13T23:57:49.704Z,4.03
